sensor_id;sensor_type;location;lat;lon;timestamp;temperature;humidity
75363;DHT22;64122;51.988;5.892;2024-03-08T00:02:38;5.27;66.77
75363;DHT22;64122;51.988;5.892;2024-03-08T00:05:08;5.27;66.62
75363;DHT22;64122;51.988;5.892;2024-03-08T00:07:38;5.24;66.56
75363;DHT22;64122;51.988;5.892;2024-03-08T00:10:09;5.22;66.57
75363;DHT22;64122;51.988;5.892;2024-03-08T00:12:44;5.22;66.43
75363;DHT22;64122;51.988;5.892;2024-03-08T00:15:15;5.20;66.43
75363;DHT22;64122;51.988;5.892;2024-03-08T00:17:45;5.17;66.44
75363;DHT22;64122;51.988;5.892;2024-03-08T00:20:15;5.17;66.39
75363;DHT22;64122;51.988;5.892;2024-03-08T00:22:44;5.16;66.35
75363;DHT22;64122;51.988;5.892;2024-03-08T00:25:13;5.16;66.25
75363;DHT22;64122;51.988;5.892;2024-03-08T00:27:45;5.13;66.17
75363;DHT22;64122;51.988;5.892;2024-03-08T00:30:15;5.12;66.14
75363;DHT22;64122;51.988;5.892;2024-03-08T00:32:45;5.10;66.04
75363;DHT22;64122;51.988;5.892;2024-03-08T00:35:15;5.10;65.95
75363;DHT22;64122;51.988;5.892;2024-03-08T00:37:44;5.07;65.82
75363;DHT22;64122;51.988;5.892;2024-03-08T00:40:14;5.05;65.73
75363;DHT22;64122;51.988;5.892;2024-03-08T00:42:46;5.04;65.69
75363;DHT22;64122;51.988;5.892;2024-03-08T00:45:16;5.02;65.75
75363;DHT22;64122;51.988;5.892;2024-03-08T00:47:45;4.98;65.69
75363;DHT22;64122;51.988;5.892;2024-03-08T00:50:14;5.00;65.63
75363;DHT22;64122;51.988;5.892;2024-03-08T00:52:44;4.95;65.57
75363;DHT22;64122;51.988;5.892;2024-03-08T00:55:13;4.94;65.53
75363;DHT22;64122;51.988;5.892;2024-03-08T00:57:46;4.89;65.49
75363;DHT22;64122;51.988;5.892;2024-03-08T01:00:16;4.89;65.48
75363;DHT22;64122;51.988;5.892;2024-03-08T01:02:45;4.86;65.48
75363;DHT22;64122;51.988;5.892;2024-03-08T01:05:15;4.84;65.41
75363;DHT22;64122;51.988;5.892;2024-03-08T01:07:44;4.81;65.35
75363;DHT22;64122;51.988;5.892;2024-03-08T01:10:13;4.81;65.26
75363;DHT22;64122;51.988;5.892;2024-03-08T01:12:42;4.78;65.22
75363;DHT22;64122;51.988;5.892;2024-03-08T01:15:14;4.79;64.99
75363;DHT22;64122;51.988;5.892;2024-03-08T01:17:44;4.75;64.98
75363;DHT22;64122;51.988;5.892;2024-03-08T01:20:13;4.74;64.88
75363;DHT22;64122;51.988;5.892;2024-03-08T01:22:44;4.74;64.63
75363;DHT22;64122;51.988;5.892;2024-03-08T01:25:13;4.72;64.53
75363;DHT22;64122;51.988;5.892;2024-03-08T01:27:42;4.73;64.43
75363;DHT22;64122;51.988;5.892;2024-03-08T01:30:14;4.74;64.24
75363;DHT22;64122;51.988;5.892;2024-03-08T01:32:44;4.72;64.05
75363;DHT22;64122;51.988;5.892;2024-03-08T01:35:14;4.69;63.89
75363;DHT22;64122;51.988;5.892;2024-03-08T01:37:44;4.69;63.82
75363;DHT22;64122;51.988;5.892;2024-03-08T01:40:16;4.71;63.76
75363;DHT22;64122;51.988;5.892;2024-03-08T01:42:45;4.68;63.77
75363;DHT22;64122;51.988;5.892;2024-03-08T01:45:18;4.68;63.63
75363;DHT22;64122;51.988;5.892;2024-03-08T01:47:47;4.66;63.66
75363;DHT22;64122;51.988;5.892;2024-03-08T01:50:17;4.66;63.60
75363;DHT22;64122;51.988;5.892;2024-03-08T01:52:47;4.64;63.61
75363;DHT22;64122;51.988;5.892;2024-03-08T01:55:17;4.63;63.49
75363;DHT22;64122;51.988;5.892;2024-03-08T01:57:46;4.61;63.38
75363;DHT22;64122;51.988;5.892;2024-03-08T02:00:18;4.62;63.37
75363;DHT22;64122;51.988;5.892;2024-03-08T02:02:51;4.59;63.40
75363;DHT22;64122;51.988;5.892;2024-03-08T02:05:23;4.56;63.39
75363;DHT22;64122;51.988;5.892;2024-03-08T02:07:52;4.54;63.59
75363;DHT22;64122;51.988;5.892;2024-03-08T02:10:21;4.50;63.44
75363;DHT22;64122;51.988;5.892;2024-03-08T02:12:51;4.48;63.44
75363;DHT22;64122;51.988;5.892;2024-03-08T02:15:23;4.47;63.40
75363;DHT22;64122;51.988;5.892;2024-03-08T02:17:52;4.43;63.54
75363;DHT22;64122;51.988;5.892;2024-03-08T02:20:22;4.42;63.51
75363;DHT22;64122;51.988;5.892;2024-03-08T02:22:54;4.38;63.50
75363;DHT22;64122;51.988;5.892;2024-03-08T02:25:23;4.36;63.59
75363;DHT22;64122;51.988;5.892;2024-03-08T02:27:52;4.34;63.65
75363;DHT22;64122;51.988;5.892;2024-03-08T02:30:22;4.31;63.68
75363;DHT22;64122;51.988;5.892;2024-03-08T02:32:55;4.29;63.85
75363;DHT22;64122;51.988;5.892;2024-03-08T02:35:25;4.27;63.82
75363;DHT22;64122;51.988;5.892;2024-03-08T02:37:57;4.26;63.86
75363;DHT22;64122;51.988;5.892;2024-03-08T02:40:26;4.23;63.85
75363;DHT22;64122;51.988;5.892;2024-03-08T02:42:55;4.20;63.84
75363;DHT22;64122;51.988;5.892;2024-03-08T02:45:25;4.18;63.92
75363;DHT22;64122;51.988;5.892;2024-03-08T02:47:54;4.15;63.93
75363;DHT22;64122;51.988;5.892;2024-03-08T02:50:23;4.12;63.97
75363;DHT22;64122;51.988;5.892;2024-03-08T02:52:53;4.09;64.04
75363;DHT22;64122;51.988;5.892;2024-03-08T02:55:25;4.08;64.04
75363;DHT22;64122;51.988;5.892;2024-03-08T02:57:54;4.06;64.08
75363;DHT22;64122;51.988;5.892;2024-03-08T03:00:23;4.05;64.08
75363;DHT22;64122;51.988;5.892;2024-03-08T03:02:53;4.00;64.19
75363;DHT22;64122;51.988;5.892;2024-03-08T03:05:23;4.01;64.19
75363;DHT22;64122;51.988;5.892;2024-03-08T03:07:53;4.00;64.19
75363;DHT22;64122;51.988;5.892;2024-03-08T03:10:25;4.00;64.19
75363;DHT22;64122;51.988;5.892;2024-03-08T03:12:54;3.95;64.27
75363;DHT22;64122;51.988;5.892;2024-03-08T03:15:24;3.95;64.30
75363;DHT22;64122;51.988;5.892;2024-03-08T03:17:53;3.94;64.35
75363;DHT22;64122;51.988;5.892;2024-03-08T03:20:22;3.91;64.38
75363;DHT22;64122;51.988;5.892;2024-03-08T03:22:52;3.90;64.47
75363;DHT22;64122;51.988;5.892;2024-03-08T03:25:25;3.90;64.40
75363;DHT22;64122;51.988;5.892;2024-03-08T03:27:59;3.86;64.49
75363;DHT22;64122;51.988;5.892;2024-03-08T03:30:28;3.86;64.50
75363;DHT22;64122;51.988;5.892;2024-03-08T03:32:59;3.82;64.50
75363;DHT22;64122;51.988;5.892;2024-03-08T03:35:33;3.80;64.50
75363;DHT22;64122;51.988;5.892;2024-03-08T03:38:03;3.77;64.55
75363;DHT22;64122;51.988;5.892;2024-03-08T03:40:37;3.79;64.52
75363;DHT22;64122;51.988;5.892;2024-03-08T03:43:07;3.74;64.59
75363;DHT22;64122;51.988;5.892;2024-03-08T03:45:37;3.71;64.71
75363;DHT22;64122;51.988;5.892;2024-03-08T03:48:08;3.71;64.67
75363;DHT22;64122;51.988;5.892;2024-03-08T03:50:37;3.70;64.71
75363;DHT22;64122;51.988;5.892;2024-03-08T03:53:07;3.69;64.72
75363;DHT22;64122;51.988;5.892;2024-03-08T03:55:39;3.69;64.72
75363;DHT22;64122;51.988;5.892;2024-03-08T03:58:08;3.67;64.74
75363;DHT22;64122;51.988;5.892;2024-03-08T04:00:38;3.67;64.82
75363;DHT22;64122;51.988;5.892;2024-03-08T04:03:08;3.64;64.84
75363;DHT22;64122;51.988;5.892;2024-03-08T04:05:37;3.64;64.84
75363;DHT22;64122;51.988;5.892;2024-03-08T04:08:06;3.62;64.95
75363;DHT22;64122;51.988;5.892;2024-03-08T04:10:35;3.61;64.90
75363;DHT22;64122;51.988;5.892;2024-03-08T04:13:07;3.62;64.85
75363;DHT22;64122;51.988;5.892;2024-03-08T04:15:38;3.60;64.91
75363;DHT22;64122;51.988;5.892;2024-03-08T04:18:07;3.60;64.98
75363;DHT22;64122;51.988;5.892;2024-03-08T04:20:36;3.58;64.99
75363;DHT22;64122;51.988;5.892;2024-03-08T04:23:06;3.58;64.96
75363;DHT22;64122;51.988;5.892;2024-03-08T04:25:35;3.56;65.01
75363;DHT22;64122;51.988;5.892;2024-03-08T04:28:08;3.56;65.03
75363;DHT22;64122;51.988;5.892;2024-03-08T04:30:39;3.55;65.11
75363;DHT22;64122;51.988;5.892;2024-03-08T04:33:08;3.54;65.14
75363;DHT22;64122;51.988;5.892;2024-03-08T04:35:37;3.52;65.10
75363;DHT22;64122;51.988;5.892;2024-03-08T04:38:07;3.50;65.10
75363;DHT22;64122;51.988;5.892;2024-03-08T04:40:36;3.49;65.08
75363;DHT22;64122;51.988;5.892;2024-03-08T04:43:08;3.50;65.11
75363;DHT22;64122;51.988;5.892;2024-03-08T04:45:37;3.48;65.12
75363;DHT22;64122;51.988;5.892;2024-03-08T04:48:08;3.46;65.20
75363;DHT22;64122;51.988;5.892;2024-03-08T04:50:37;3.46;65.23
75363;DHT22;64122;51.988;5.892;2024-03-08T04:53:07;3.44;65.22
75363;DHT22;64122;51.988;5.892;2024-03-08T04:55:36;3.44;65.24
75363;DHT22;64122;51.988;5.892;2024-03-08T04:58:08;3.44;65.24
75363;DHT22;64122;51.988;5.892;2024-03-08T05:00:38;3.41;65.30
75363;DHT22;64122;51.988;5.892;2024-03-08T05:03:07;3.41;65.37
75363;DHT22;64122;51.988;5.892;2024-03-08T05:05:36;3.41;65.30
75363;DHT22;64122;51.988;5.892;2024-03-08T05:08:06;3.40;65.29
75363;DHT22;64122;51.988;5.892;2024-03-08T05:10:35;3.39;65.29
75363;DHT22;64122;51.988;5.892;2024-03-08T05:13:04;3.36;65.29
75363;DHT22;64122;51.988;5.892;2024-03-08T05:15:36;3.36;65.25
75363;DHT22;64122;51.988;5.892;2024-03-08T05:18:06;3.35;65.36
75363;DHT22;64122;51.988;5.892;2024-03-08T05:20:37;3.33;65.40
75363;DHT22;64122;51.988;5.892;2024-03-08T05:23:07;3.33;65.33
75363;DHT22;64122;51.988;5.892;2024-03-08T05:25:36;3.34;65.32
75363;DHT22;64122;51.988;5.892;2024-03-08T05:28:06;3.33;65.30
75363;DHT22;64122;51.988;5.892;2024-03-08T05:30:38;3.34;65.27
75363;DHT22;64122;51.988;5.892;2024-03-08T05:33:07;3.32;65.43
75363;DHT22;64122;51.988;5.892;2024-03-08T05:35:40;3.32;65.34
75363;DHT22;64122;51.988;5.892;2024-03-08T05:38:10;3.31;65.33
75363;DHT22;64122;51.988;5.892;2024-03-08T05:40:39;3.33;65.28
75363;DHT22;64122;51.988;5.892;2024-03-08T05:43:09;3.32;65.40
75363;DHT22;64122;51.988;5.892;2024-03-08T05:45:41;3.33;65.25
75363;DHT22;64122;51.988;5.892;2024-03-08T05:48:10;3.30;65.42
75363;DHT22;64122;51.988;5.892;2024-03-08T05:50:40;3.32;65.46
75363;DHT22;64122;51.988;5.892;2024-03-08T05:53:12;3.29;65.35
75363;DHT22;64122;51.988;5.892;2024-03-08T05:55:41;3.30;65.33
75363;DHT22;64122;51.988;5.892;2024-03-08T05:58:10;3.29;65.27
75363;DHT22;64122;51.988;5.892;2024-03-08T06:00:45;3.31;65.17
75363;DHT22;64122;51.988;5.892;2024-03-08T06:03:15;3.30;65.32
75363;DHT22;64122;51.988;5.892;2024-03-08T06:05:48;3.30;65.19
75363;DHT22;64122;51.988;5.892;2024-03-08T06:08:17;3.29;65.30
75363;DHT22;64122;51.988;5.892;2024-03-08T06:10:47;3.29;65.25
75363;DHT22;64122;51.988;5.892;2024-03-08T06:13:18;3.30;65.20
75363;DHT22;64122;51.988;5.892;2024-03-08T06:15:50;3.31;65.17
75363;DHT22;64122;51.988;5.892;2024-03-08T06:18:20;3.28;65.18
75363;DHT22;64122;51.988;5.892;2024-03-08T06:20:49;3.31;65.16
75363;DHT22;64122;51.988;5.892;2024-03-08T06:23:18;3.33;65.18
75363;DHT22;64122;51.988;5.892;2024-03-08T06:25:48;3.35;65.15
75363;DHT22;64122;51.988;5.892;2024-03-08T06:28:17;3.39;65.11
75363;DHT22;64122;51.988;5.892;2024-03-08T06:30:46;3.43;64.97
75363;DHT22;64122;51.988;5.892;2024-03-08T06:33:20;3.45;64.80
75363;DHT22;64122;51.988;5.892;2024-03-08T06:35:49;3.48;64.77
75363;DHT22;64122;51.988;5.892;2024-03-08T06:38:18;3.52;64.72
75363;DHT22;64122;51.988;5.892;2024-03-08T06:40:48;3.55;64.59
75363;DHT22;64122;51.988;5.892;2024-03-08T06:43:17;3.57;64.59
75363;DHT22;64122;51.988;5.892;2024-03-08T06:45:47;3.62;64.47
75363;DHT22;64122;51.988;5.892;2024-03-08T06:48:20;3.67;64.34
75363;DHT22;64122;51.988;5.892;2024-03-08T06:50:49;3.69;64.35
75363;DHT22;64122;51.988;5.892;2024-03-08T06:53:18;3.74;64.32
75363;DHT22;64122;51.988;5.892;2024-03-08T06:55:48;3.78;64.19
75363;DHT22;64122;51.988;5.892;2024-03-08T06:58:17;3.85;64.08
75363;DHT22;64122;51.988;5.892;2024-03-08T07:00:47;3.90;63.83
75363;DHT22;64122;51.988;5.892;2024-03-08T07:03:20;3.98;63.71
75363;DHT22;64122;51.988;5.892;2024-03-08T07:05:50;4.01;63.55
75363;DHT22;64122;51.988;5.892;2024-03-08T07:08:19;4.07;63.49
75363;DHT22;64122;51.988;5.892;2024-03-08T07:10:49;4.14;63.31
75363;DHT22;64122;51.988;5.892;2024-03-08T07:13:18;4.19;63.13
75363;DHT22;64122;51.988;5.892;2024-03-08T07:15:47;4.24;63.04
75363;DHT22;64122;51.988;5.892;2024-03-08T07:18:21;4.31;62.82
75363;DHT22;64122;51.988;5.892;2024-03-08T07:20:50;4.37;62.76
75363;DHT22;64122;51.988;5.892;2024-03-08T07:23:19;4.45;62.55
75363;DHT22;64122;51.988;5.892;2024-03-08T07:26:01;4.56;62.44
75363;DHT22;64122;51.988;5.892;2024-03-08T07:28:30;4.81;62.07
75363;DHT22;64122;51.988;5.892;2024-03-08T07:30:59;6.42;58.02
75363;DHT22;64122;51.988;5.892;2024-03-08T07:33:46;8.18;53.32
75363;DHT22;64122;51.988;5.892;2024-03-08T07:36:16;9.55;49.92
75363;DHT22;64122;51.988;5.892;2024-03-08T07:38:45;10.23;47.83
75363;DHT22;64122;51.988;5.892;2024-03-08T07:41:15;10.74;46.51
75363;DHT22;64122;51.988;5.892;2024-03-08T07:43:46;11.53;45.21
75363;DHT22;64122;51.988;5.892;2024-03-08T07:46:15;12.10;43.74
75363;DHT22;64122;51.988;5.892;2024-03-08T07:48:47;12.40;42.79
75363;DHT22;64122;51.988;5.892;2024-03-08T07:51:17;12.70;42.13
75363;DHT22;64122;51.988;5.892;2024-03-08T07:53:47;13.08;41.33
75363;DHT22;64122;51.988;5.892;2024-03-08T07:56:16;13.45;40.75
75363;DHT22;64122;51.988;5.892;2024-03-08T07:58:47;13.70;39.97
75363;DHT22;64122;51.988;5.892;2024-03-08T08:01:17;14.15;39.12
75363;DHT22;64122;51.988;5.892;2024-03-08T08:03:46;14.12;38.86
75363;DHT22;64122;51.988;5.892;2024-03-08T08:06:16;14.18;38.43
75363;DHT22;64122;51.988;5.892;2024-03-08T08:08:46;14.28;37.88
75363;DHT22;64122;51.988;5.892;2024-03-08T08:11:15;14.39;38.10
75363;DHT22;64122;51.988;5.892;2024-03-08T08:13:45;14.82;37.50
75363;DHT22;64122;51.988;5.892;2024-03-08T08:16:14;14.91;37.07
75363;DHT22;64122;51.988;5.892;2024-03-08T08:18:43;14.81;36.56
75363;DHT22;64122;51.988;5.892;2024-03-08T08:21:16;14.84;36.65
75363;DHT22;64122;51.988;5.892;2024-03-08T08:23:48;14.89;36.69
75363;DHT22;64122;51.988;5.892;2024-03-08T08:26:17;15.36;36.02
75363;DHT22;64122;51.988;5.892;2024-03-08T08:28:47;15.45;35.53
75363;DHT22;64122;51.988;5.892;2024-03-08T08:31:16;15.49;35.72
75363;DHT22;64122;51.988;5.892;2024-03-08T08:33:46;16.00;35.05
75363;DHT22;64122;51.988;5.892;2024-03-08T08:36:18;16.39;34.44
75363;DHT22;64122;51.988;5.892;2024-03-08T08:38:47;16.64;34.03
75363;DHT22;64122;51.988;5.892;2024-03-08T08:41:16;16.64;33.73
75363;DHT22;64122;51.988;5.892;2024-03-08T08:43:47;16.62;33.48
75363;DHT22;64122;51.988;5.892;2024-03-08T08:46:17;16.57;33.57
75363;DHT22;64122;51.988;5.892;2024-03-08T08:48:47;16.56;33.40
75363;DHT22;64122;51.988;5.892;2024-03-08T08:51:19;16.78;33.18
75363;DHT22;64122;51.988;5.892;2024-03-08T08:53:49;16.88;32.58
75363;DHT22;64122;51.988;5.892;2024-03-08T08:56:18;16.55;33.04
75363;DHT22;64122;51.988;5.892;2024-03-08T08:58:48;16.35;33.15
75363;DHT22;64122;51.988;5.892;2024-03-08T09:01:17;16.18;33.26
75363;DHT22;64122;51.988;5.892;2024-03-08T09:03:47;16.26;33.41
75363;DHT22;64122;51.988;5.892;2024-03-08T09:06:19;16.39;33.38
75363;DHT22;64122;51.988;5.892;2024-03-08T09:08:48;16.51;33.17
75363;DHT22;64122;51.988;5.892;2024-03-08T09:11:19;16.39;33.14
75363;DHT22;64122;51.988;5.892;2024-03-08T09:13:48;16.46;33.38
75363;DHT22;64122;51.988;5.892;2024-03-08T09:16:17;16.55;33.09
75363;DHT22;64122;51.988;5.892;2024-03-08T09:18:46;16.28;33.32
75363;DHT22;64122;51.988;5.892;2024-03-08T09:21:19;16.50;33.44
75363;DHT22;64122;51.988;5.892;2024-03-08T09:23:48;16.74;33.29
75363;DHT22;64122;51.988;5.892;2024-03-08T09:26:20;16.87;33.12
75363;DHT22;64122;51.988;5.892;2024-03-08T09:28:49;16.75;33.04
75363;DHT22;64122;51.988;5.892;2024-03-08T09:31:19;16.79;33.01
75363;DHT22;64122;51.988;5.892;2024-03-08T09:33:49;16.80;33.09
75363;DHT22;64122;51.988;5.892;2024-03-08T09:36:21;16.56;33.29
75363;DHT22;64122;51.988;5.892;2024-03-08T09:38:51;16.11;33.72
75363;DHT22;64122;51.988;5.892;2024-03-08T09:41:20;15.33;34.72
75363;DHT22;64122;51.988;5.892;2024-03-08T09:43:49;15.08;35.45
75363;DHT22;64122;51.988;5.892;2024-03-08T09:46:20;14.87;35.94
75363;DHT22;64122;51.988;5.892;2024-03-08T09:48:50;14.85;36.27
75363;DHT22;64122;51.988;5.892;2024-03-08T09:51:27;14.65;36.83
75363;DHT22;64122;51.988;5.892;2024-03-08T09:53:57;14.36;37.28
75363;DHT22;64122;51.988;5.892;2024-03-08T09:56:27;14.19;37.61
75363;DHT22;64122;51.988;5.892;2024-03-08T09:58:57;13.98;38.47
75363;DHT22;64122;51.988;5.892;2024-03-08T10:01:47;13.66;38.90
75363;DHT22;64122;51.988;5.892;2024-03-08T10:04:18;13.36;39.63
75363;DHT22;64122;51.988;5.892;2024-03-08T10:06:50;12.96;40.29
75363;DHT22;64122;51.988;5.892;2024-03-08T10:09:19;12.55;41.14
75363;DHT22;64122;51.988;5.892;2024-03-08T10:11:53;12.28;41.99
75363;DHT22;64122;51.988;5.892;2024-03-08T10:14:24;12.11;42.72
75363;DHT22;64122;51.988;5.892;2024-03-08T10:16:53;12.02;42.88
75363;DHT22;64122;51.988;5.892;2024-03-08T10:19:26;11.88;43.36
75363;DHT22;64122;51.988;5.892;2024-03-08T10:21:58;11.89;43.63
75363;DHT22;64122;51.988;5.892;2024-03-08T10:24:28;11.91;43.61
75363;DHT22;64122;51.988;5.892;2024-03-08T10:26:59;11.79;43.94
75363;DHT22;64122;51.988;5.892;2024-03-08T10:29:31;11.83;43.92
75363;DHT22;64122;51.988;5.892;2024-03-08T10:32:01;11.87;44.21
75363;DHT22;64122;51.988;5.892;2024-03-08T10:34:32;11.88;44.11
75363;DHT22;64122;51.988;5.892;2024-03-08T10:37:05;11.87;44.26
75363;DHT22;64122;51.988;5.892;2024-03-08T10:39:36;11.96;44.35
75363;DHT22;64122;51.988;5.892;2024-03-08T10:42:11;11.98;44.06
75363;DHT22;64122;51.988;5.892;2024-03-08T10:44:51;11.98;44.07
75363;DHT22;64122;51.988;5.892;2024-03-08T10:47:26;12.00;44.29
75363;DHT22;64122;51.988;5.892;2024-03-08T10:50:05;11.92;44.30
75363;DHT22;64122;51.988;5.892;2024-03-08T10:52:41;11.99;44.33
75363;DHT22;64122;51.988;5.892;2024-03-08T10:55:12;12.06;44.03
75363;DHT22;64122;51.988;5.892;2024-03-08T10:57:42;12.02;44.19
75363;DHT22;64122;51.988;5.892;2024-03-08T11:00:13;12.04;44.00
75363;DHT22;64122;51.988;5.892;2024-03-08T11:02:44;11.92;44.30
75363;DHT22;64122;51.988;5.892;2024-03-08T11:05:31;12.03;44.27
75363;DHT22;64122;51.988;5.892;2024-03-08T11:08:06;12.05;44.30
75363;DHT22;64122;51.988;5.892;2024-03-08T11:10:48;12.14;44.19
75363;DHT22;64122;51.988;5.892;2024-03-08T11:13:35;12.07;44.14
75363;DHT22;64122;51.988;5.892;2024-03-08T11:16:07;12.11;43.87
75363;DHT22;64122;51.988;5.892;2024-03-08T11:18:37;12.05;43.71
75363;DHT22;64122;51.988;5.892;2024-03-08T11:21:08;12.04;43.93
75363;DHT22;64122;51.988;5.892;2024-03-08T11:23:41;11.94;44.34
75363;DHT22;64122;51.988;5.892;2024-03-08T11:26:20;12.02;43.80
75363;DHT22;64122;51.988;5.892;2024-03-08T11:28:52;12.07;43.51
75363;DHT22;64122;51.988;5.892;2024-03-08T11:31:25;12.13;43.03
75363;DHT22;64122;51.988;5.892;2024-03-08T11:33:55;11.96;43.15
75363;DHT22;64122;51.988;5.892;2024-03-08T11:36:25;11.94;43.34
75363;DHT22;64122;51.988;5.892;2024-03-08T11:38:59;11.91;43.04
75363;DHT22;64122;51.988;5.892;2024-03-08T11:41:36;11.98;43.22
75363;DHT22;64122;51.988;5.892;2024-03-08T11:44:07;11.96;43.29
75363;DHT22;64122;51.988;5.892;2024-03-08T11:46:42;11.93;43.24
75363;DHT22;64122;51.988;5.892;2024-03-08T11:49:13;11.99;43.22
75363;DHT22;64122;51.988;5.892;2024-03-08T11:51:43;12.01;43.10
75363;DHT22;64122;51.988;5.892;2024-03-08T11:54:15;11.92;43.33
75363;DHT22;64122;51.988;5.892;2024-03-08T11:56:45;11.94;43.29
75363;DHT22;64122;51.988;5.892;2024-03-08T11:59:15;12.02;43.31
75363;DHT22;64122;51.988;5.892;2024-03-08T12:01:58;12.18;43.20
75363;DHT22;64122;51.988;5.892;2024-03-08T12:04:28;12.33;42.65
75363;DHT22;64122;51.988;5.892;2024-03-08T12:06:59;12.22;41.29
75363;DHT22;64122;51.988;5.892;2024-03-08T12:09:38;12.13;41.48
75363;DHT22;64122;51.988;5.892;2024-03-08T12:12:12;12.18;41.42
75363;DHT22;64122;51.988;5.892;2024-03-08T12:14:43;12.13;41.28
75363;DHT22;64122;51.988;5.892;2024-03-08T12:17:13;12.13;41.49
75363;DHT22;64122;51.988;5.892;2024-03-08T12:19:46;12.06;41.81
75363;DHT22;64122;51.988;5.892;2024-03-08T12:22:16;12.15;41.74
75363;DHT22;64122;51.988;5.892;2024-03-08T12:25:03;12.13;41.55
75363;DHT22;64122;51.988;5.892;2024-03-08T12:27:36;12.05;41.41
75363;DHT22;64122;51.988;5.892;2024-03-08T12:30:20;12.06;41.50
75363;DHT22;64122;51.988;5.892;2024-03-08T12:32:54;11.96;41.33
75363;DHT22;64122;51.988;5.892;2024-03-08T12:35:26;11.96;41.57
75363;DHT22;64122;51.988;5.892;2024-03-08T12:37:58;11.92;41.43
75363;DHT22;64122;51.988;5.892;2024-03-08T12:40:31;11.89;41.27
75363;DHT22;64122;51.988;5.892;2024-03-08T12:43:06;11.87;41.72
75363;DHT22;64122;51.988;5.892;2024-03-08T12:45:36;11.86;41.87
75363;DHT22;64122;51.988;5.892;2024-03-08T12:48:12;11.73;41.76
75363;DHT22;64122;51.988;5.892;2024-03-08T12:50:43;11.74;42.19
75363;DHT22;64122;51.988;5.892;2024-03-08T12:53:14;11.82;42.03
75363;DHT22;64122;51.988;5.892;2024-03-08T12:55:46;11.82;42.04
75363;DHT22;64122;51.988;5.892;2024-03-08T12:58:15;11.75;41.93
75363;DHT22;64122;51.988;5.892;2024-03-08T13:00:46;11.72;42.23
75363;DHT22;64122;51.988;5.892;2024-03-08T13:03:15;11.74;42.43
75363;DHT22;64122;51.988;5.892;2024-03-08T13:05:45;11.73;42.54
75363;DHT22;64122;51.988;5.892;2024-03-08T13:08:15;11.75;42.80
75363;DHT22;64122;51.988;5.892;2024-03-08T13:10:47;11.78;42.82
75363;DHT22;64122;51.988;5.892;2024-03-08T13:13:17;11.82;42.87
75363;DHT22;64122;51.988;5.892;2024-03-08T13:15:46;11.77;42.43
75363;DHT22;64122;51.988;5.892;2024-03-08T13:18:16;11.76;42.55
75363;DHT22;64122;51.988;5.892;2024-03-08T13:20:45;11.81;42.78
75363;DHT22;64122;51.988;5.892;2024-03-08T13:23:15;11.89;42.97
75363;DHT22;64122;51.988;5.892;2024-03-08T13:25:47;11.98;42.74
75363;DHT22;64122;51.988;5.892;2024-03-08T13:28:17;12.01;42.78
75363;DHT22;64122;51.988;5.892;2024-03-08T13:30:49;12.07;42.84
75363;DHT22;64122;51.988;5.892;2024-03-08T13:33:18;12.13;42.68
75363;DHT22;64122;51.988;5.892;2024-03-08T13:35:48;12.11;42.52
75363;DHT22;64122;51.988;5.892;2024-03-08T13:38:17;12.11;42.40
75363;DHT22;64122;51.988;5.892;2024-03-08T13:40:49;12.08;42.61
75363;DHT22;64122;51.988;5.892;2024-03-08T13:43:19;12.07;42.66
75363;DHT22;64122;51.988;5.892;2024-03-08T13:45:49;12.08;42.81
75363;DHT22;64122;51.988;5.892;2024-03-08T13:48:18;12.05;42.79
75363;DHT22;64122;51.988;5.892;2024-03-08T13:50:48;11.94;42.87
75363;DHT22;64122;51.988;5.892;2024-03-08T13:53:18;11.97;42.93
75363;DHT22;64122;51.988;5.892;2024-03-08T13:55:50;11.98;42.87
75363;DHT22;64122;51.988;5.892;2024-03-08T13:58:19;12.05;42.87
75363;DHT22;64122;51.988;5.892;2024-03-08T14:00:49;12.11;42.75
75363;DHT22;64122;51.988;5.892;2024-03-08T14:03:18;12.17;42.71
75363;DHT22;64122;51.988;5.892;2024-03-08T14:05:47;12.18;42.50
75363;DHT22;64122;51.988;5.892;2024-03-08T14:08:17;12.15;42.26
75363;DHT22;64122;51.988;5.892;2024-03-08T14:10:46;12.17;42.39
75363;DHT22;64122;51.988;5.892;2024-03-08T14:13:20;12.22;42.48
75363;DHT22;64122;51.988;5.892;2024-03-08T14:15:50;12.25;42.61
75363;DHT22;64122;51.988;5.892;2024-03-08T14:18:19;12.26;42.41
75363;DHT22;64122;51.988;5.892;2024-03-08T14:20:48;12.27;42.43
75363;DHT22;64122;51.988;5.892;2024-03-08T14:23:18;12.25;42.48
75363;DHT22;64122;51.988;5.892;2024-03-08T14:25:49;12.29;42.47
75363;DHT22;64122;51.988;5.892;2024-03-08T14:28:22;12.27;42.39
75363;DHT22;64122;51.988;5.892;2024-03-08T14:30:53;12.22;42.09
75363;DHT22;64122;51.988;5.892;2024-03-08T14:33:24;12.17;42.27
75363;DHT22;64122;51.988;5.892;2024-03-08T14:35:54;12.14;42.61
75363;DHT22;64122;51.988;5.892;2024-03-08T14:38:23;12.12;42.43
75363;DHT22;64122;51.988;5.892;2024-03-08T14:40:53;12.07;42.51
75363;DHT22;64122;51.988;5.892;2024-03-08T14:43:25;12.08;42.79
75363;DHT22;64122;51.988;5.892;2024-03-08T14:45:55;12.16;42.76
75363;DHT22;64122;51.988;5.892;2024-03-08T14:48:24;12.07;42.62
75363;DHT22;64122;51.988;5.892;2024-03-08T14:50:53;12.13;42.70
75363;DHT22;64122;51.988;5.892;2024-03-08T14:53:23;12.12;42.52
75363;DHT22;64122;51.988;5.892;2024-03-08T14:55:53;12.14;42.51
75363;DHT22;64122;51.988;5.892;2024-03-08T14:58:25;12.10;42.68
75363;DHT22;64122;51.988;5.892;2024-03-08T15:00:55;12.07;42.77
75363;DHT22;64122;51.988;5.892;2024-03-08T15:03:26;12.00;42.94
75363;DHT22;64122;51.988;5.892;2024-03-08T15:05:56;11.96;43.16
75363;DHT22;64122;51.988;5.892;2024-03-08T15:08:25;11.93;43.22
75363;DHT22;64122;51.988;5.892;2024-03-08T15:10:55;11.91;43.19
75363;DHT22;64122;51.988;5.892;2024-03-08T15:13:27;11.94;43.19
75363;DHT22;64122;51.988;5.892;2024-03-08T15:16:05;11.99;43.09
75363;DHT22;64122;51.988;5.892;2024-03-08T15:18:41;11.92;43.33
75363;DHT22;64122;51.988;5.892;2024-03-08T15:21:13;12.07;42.94
75363;DHT22;64122;51.988;5.892;2024-03-08T15:23:45;12.31;42.48
75363;DHT22;64122;51.988;5.892;2024-03-08T15:26:18;12.36;42.21
75363;DHT22;64122;51.988;5.892;2024-03-08T15:28:50;12.40;42.20
75363;DHT22;64122;51.988;5.892;2024-03-08T15:31:20;12.28;42.24
75363;DHT22;64122;51.988;5.892;2024-03-08T15:33:51;12.14;42.37
75363;DHT22;64122;51.988;5.892;2024-03-08T15:36:26;12.14;42.49
75363;DHT22;64122;51.988;5.892;2024-03-08T15:38:57;12.12;42.47
75363;DHT22;64122;51.988;5.892;2024-03-08T15:41:26;11.98;42.94
75363;DHT22;64122;51.988;5.892;2024-03-08T15:43:58;11.84;43.36
75363;DHT22;64122;51.988;5.892;2024-03-08T15:46:28;11.72;43.79
75363;DHT22;64122;51.988;5.892;2024-03-08T15:48:57;11.66;43.84
75363;DHT22;64122;51.988;5.892;2024-03-08T15:51:26;11.57;44.03
75363;DHT22;64122;51.988;5.892;2024-03-08T15:53:57;11.58;44.05
75363;DHT22;64122;51.988;5.892;2024-03-08T15:56:26;11.51;43.88
75363;DHT22;64122;51.988;5.892;2024-03-08T15:59:00;11.39;43.78
75363;DHT22;64122;51.988;5.892;2024-03-08T16:01:32;11.34;43.96